sensor_id;sensor_type;location;lat;lon;timestamp;P1;durP1;ratioP1;P2;durP2;ratioP2
49592;SDS011;35499;51.482;4.264;2023-02-24T00:00:57;9.15;;;1.38;;
49592;SDS011;35499;51.482;4.264;2023-02-24T00:03:26;14.63;;;2.22;;
49592;SDS011;35499;51.482;4.264;2023-02-24T00:05:51;6.77;;;1.77;;
49592;SDS011;35499;51.482;4.264;2023-02-24T00:08:16;6.73;;;1.33;;
49592;SDS011;35499;51.482;4.264;2023-02-24T00:10:42;8.77;;;2.27;;
49592;SDS011;35499;51.482;4.264;2023-02-24T00:13:07;10.17;;;3.00;;
49592;SDS011;35499;51.482;4.264;2023-02-24T00:15:32;7.53;;;1.77;;
49592;SDS011;35499;51.482;4.264;2023-02-24T00:17:57;8.37;;;1.63;;
49592;SDS011;35499;51.482;4.264;2023-02-24T00:20:23;9.47;;;1.70;;
49592;SDS011;35499;51.482;4.264;2023-02-24T00:22:49;12.63;;;1.67;;
49592;SDS011;35499;51.482;4.264;2023-02-24T00:25:14;10.90;;;1.60;;
49592;SDS011;35499;51.482;4.264;2023-02-24T00:27:39;14.93;;;2.50;;
49592;SDS011;35499;51.482;4.264;2023-02-24T00:30:06;11.93;;;3.17;;
49592;SDS011;35499;51.482;4.264;2023-02-24T00:32:35;11.02;;;1.95;;
49592;SDS011;35499;51.482;4.264;2023-02-24T00:35:01;13.07;;;1.92;;
49592;SDS011;35499;51.482;4.264;2023-02-24T00:37:27;6.93;;;1.23;;
49592;SDS011;35499;51.482;4.264;2023-02-24T00:39:53;10.70;;;1.73;;
49592;SDS011;35499;51.482;4.264;2023-02-24T00:42:22;7.72;;;1.17;;
49592;SDS011;35499;51.482;4.264;2023-02-24T00:44:48;4.38;;;1.00;;
49592;SDS011;35499;51.482;4.264;2023-02-24T00:47:18;11.50;;;1.63;;
49592;SDS011;35499;51.482;4.264;2023-02-24T00:49:43;7.90;;;1.40;;
49592;SDS011;35499;51.482;4.264;2023-02-24T00:52:12;7.55;;;1.48;;
49592;SDS011;35499;51.482;4.264;2023-02-24T00:54:41;7.30;;;1.25;;
49592;SDS011;35499;51.482;4.264;2023-02-24T00:57:06;5.25;;;1.13;;
49592;SDS011;35499;51.482;4.264;2023-02-24T00:59:32;11.52;;;1.52;;
49592;SDS011;35499;51.482;4.264;2023-02-24T01:01:58;12.65;;;2.30;;
49592;SDS011;35499;51.482;4.264;2023-02-24T01:04:23;8.82;;;1.35;;
49592;SDS011;35499;51.482;4.264;2023-02-24T01:06:50;8.75;;;1.60;;
49592;SDS011;35499;51.482;4.264;2023-02-24T01:09:24;5.80;;;1.25;;
49592;SDS011;35499;51.482;4.264;2023-02-24T01:11:51;7.00;;;1.75;;
49592;SDS011;35499;51.482;4.264;2023-02-24T01:14:36;8.73;;;1.05;;
49592;SDS011;35499;51.482;4.264;2023-02-24T01:17:03;13.18;;;1.35;;
49592;SDS011;35499;51.482;4.264;2023-02-24T01:21:57;7.90;;;1.33;;
49592;SDS011;35499;51.482;4.264;2023-02-24T01:24:25;7.97;;;1.15;;
49592;SDS011;35499;51.482;4.264;2023-02-24T01:26:50;8.98;;;1.27;;
49592;SDS011;35499;51.482;4.264;2023-02-24T01:29:16;4.95;;;0.77;;
49592;SDS011;35499;51.482;4.264;2023-02-24T01:31:42;17.20;;;1.40;;
49592;SDS011;35499;51.482;4.264;2023-02-24T01:34:08;4.75;;;1.10;;
49592;SDS011;35499;51.482;4.264;2023-02-24T01:36:35;9.05;;;1.13;;
49592;SDS011;35499;51.482;4.264;2023-02-24T01:39:02;10.63;;;1.17;;
49592;SDS011;35499;51.482;4.264;2023-02-24T01:41:35;5.70;;;1.25;;
49592;SDS011;35499;51.482;4.264;2023-02-24T01:46:47;5.43;;;1.00;;
49592;SDS011;35499;51.482;4.264;2023-02-24T01:51:55;5.68;;;1.10;;
49592;SDS011;35499;51.482;4.264;2023-02-24T01:54:27;11.65;;;1.60;;
49592;SDS011;35499;51.482;4.264;2023-02-24T01:56:56;9.50;;;1.17;;
49592;SDS011;35499;51.482;4.264;2023-02-24T01:59:23;6.18;;;1.13;;
49592;SDS011;35499;51.482;4.264;2023-02-24T02:01:51;10.05;;;1.08;;
49592;SDS011;35499;51.482;4.264;2023-02-24T02:07:11;8.23;;;1.17;;
49592;SDS011;35499;51.482;4.264;2023-02-24T02:09:39;9.65;;;1.13;;
49592;SDS011;35499;51.482;4.264;2023-02-24T02:12:06;10.77;;;1.33;;
49592;SDS011;35499;51.482;4.264;2023-02-24T02:14:33;8.90;;;1.48;;
49592;SDS011;35499;51.482;4.264;2023-02-24T02:17:21;8.30;;;1.67;;
49592;SDS011;35499;51.482;4.264;2023-02-24T02:39:52;5.55;;;1.05;;
49592;SDS011;35499;51.482;4.264;2023-02-24T02:42:53;8.38;;;1.10;;
49592;SDS011;35499;51.482;4.264;2023-02-24T02:45:36;8.27;;;1.08;;
49592;SDS011;35499;51.482;4.264;2023-02-24T02:48:11;9.10;;;1.20;;
49592;SDS011;35499;51.482;4.264;2023-02-24T02:53:13;4.32;;;1.27;;
49592;SDS011;35499;51.482;4.264;2023-02-24T02:55:58;7.55;;;0.80;;
49592;SDS011;35499;51.482;4.264;2023-02-24T02:58:28;2.42;;;0.80;;
49592;SDS011;35499;51.482;4.264;2023-02-24T03:00:58;4.53;;;0.80;;
49592;SDS011;35499;51.482;4.264;2023-02-24T03:03:30;4.22;;;0.73;;
49592;SDS011;35499;51.482;4.264;2023-02-24T03:06:02;5.25;;;1.20;;
49592;SDS011;35499;51.482;4.264;2023-02-24T03:08:33;11.20;;;1.15;;
49592;SDS011;35499;51.482;4.264;2023-02-24T03:11:01;3.85;;;1.20;;
49592;SDS011;35499;51.482;4.264;2023-02-24T03:13:30;5.95;;;0.82;;
49592;SDS011;35499;51.482;4.264;2023-02-24T03:16:00;6.95;;;0.75;;
49592;SDS011;35499;51.482;4.264;2023-02-24T03:18:29;5.78;;;0.70;;
49592;SDS011;35499;51.482;4.264;2023-02-24T03:21:05;9.65;;;0.98;;
49592;SDS011;35499;51.482;4.264;2023-02-24T03:23:37;3.28;;;0.75;;
49592;SDS011;35499;51.482;4.264;2023-02-24T03:26:27;8.45;;;1.00;;
49592;SDS011;35499;51.482;4.264;2023-02-24T03:34:21;4.78;;;1.05;;
49592;SDS011;35499;51.482;4.264;2023-02-24T03:36:53;4.95;;;0.65;;
49592;SDS011;35499;51.482;4.264;2023-02-24T03:39:19;6.80;;;0.77;;
49592;SDS011;35499;51.482;4.264;2023-02-24T03:41:53;6.80;;;1.05;;
49592;SDS011;35499;51.482;4.264;2023-02-24T03:44:24;7.30;;;0.90;;
49592;SDS011;35499;51.482;4.264;2023-02-24T03:46:50;3.73;;;0.83;;
49592;SDS011;35499;51.482;4.264;2023-02-24T03:49:16;4.60;;;0.82;;
49592;SDS011;35499;51.482;4.264;2023-02-24T03:51:49;5.32;;;0.52;;
49592;SDS011;35499;51.482;4.264;2023-02-24T04:03:48;7.22;;;1.70;;
49592;SDS011;35499;51.482;4.264;2023-02-24T04:06:42;2.13;;;0.55;;
49592;SDS011;35499;51.482;4.264;2023-02-24T04:09:14;4.05;;;0.95;;
49592;SDS011;35499;51.482;4.264;2023-02-24T04:14:30;8.27;;;1.30;;
49592;SDS011;35499;51.482;4.264;2023-02-24T04:17:05;4.57;;;0.68;;
49592;SDS011;35499;51.482;4.264;2023-02-24T04:19:38;4.32;;;0.90;;
49592;SDS011;35499;51.482;4.264;2023-02-24T04:22:06;4.07;;;1.30;;
49592;SDS011;35499;51.482;4.264;2023-02-24T04:24:34;6.85;;;1.15;;
49592;SDS011;35499;51.482;4.264;2023-02-24T04:29:29;3.80;;;0.90;;
49592;SDS011;35499;51.482;4.264;2023-02-24T04:32:00;6.55;;;1.27;;
49592;SDS011;35499;51.482;4.264;2023-02-24T04:34:29;4.60;;;0.82;;
49592;SDS011;35499;51.482;4.264;2023-02-24T04:36:56;6.50;;;1.02;;
49592;SDS011;35499;51.482;4.264;2023-02-24T04:39:23;9.52;;;1.25;;
49592;SDS011;35499;51.482;4.264;2023-02-24T04:41:49;8.73;;;1.25;;
49592;SDS011;35499;51.482;4.264;2023-02-24T04:44:17;7.03;;;1.33;;
49592;SDS011;35499;51.482;4.264;2023-02-24T04:46:45;5.32;;;0.95;;
49592;SDS011;35499;51.482;4.264;2023-02-24T04:49:11;5.07;;;1.42;;
49592;SDS011;35499;51.482;4.264;2023-02-24T04:51:37;7.65;;;1.15;;
49592;SDS011;35499;51.482;4.264;2023-02-24T04:54:07;5.55;;;1.02;;
49592;SDS011;35499;51.482;4.264;2023-02-24T04:56:40;6.72;;;0.65;;
49592;SDS011;35499;51.482;4.264;2023-02-24T04:59:06;4.20;;;2.03;;
49592;SDS011;35499;51.482;4.264;2023-02-24T05:01:34;6.40;;;1.27;;
49592;SDS011;35499;51.482;4.264;2023-02-24T05:04:00;2.35;;;0.73;;
49592;SDS011;35499;51.482;4.264;2023-02-24T05:06:25;4.50;;;0.83;;
49592;SDS011;35499;51.482;4.264;2023-02-24T05:08:50;4.18;;;0.90;;
49592;SDS011;35499;51.482;4.264;2023-02-24T05:11:16;6.50;;;1.63;;
49592;SDS011;35499;51.482;4.264;2023-02-24T05:13:44;4.28;;;1.00;;
49592;SDS011;35499;51.482;4.264;2023-02-24T05:16:14;5.93;;;1.33;;
49592;SDS011;35499;51.482;4.264;2023-02-24T05:18:41;5.72;;;1.30;;
49592;SDS011;35499;51.482;4.264;2023-02-24T05:21:13;5.35;;;1.17;;
49592;SDS011;35499;51.482;4.264;2023-02-24T05:23:59;5.55;;;0.85;;
49592;SDS011;35499;51.482;4.264;2023-02-24T05:26:30;5.85;;;0.73;;
49592;SDS011;35499;51.482;4.264;2023-02-24T05:28:58;7.25;;;1.52;;
49592;SDS011;35499;51.482;4.264;2023-02-24T05:31:26;4.80;;;0.80;;
49592;SDS011;35499;51.482;4.264;2023-02-24T05:33:53;4.95;;;0.63;;
49592;SDS011;35499;51.482;4.264;2023-02-24T05:36:22;6.10;;;0.52;;
49592;SDS011;35499;51.482;4.264;2023-02-24T05:38:49;5.45;;;0.98;;
49592;SDS011;35499;51.482;4.264;2023-02-24T05:41:21;5.93;;;1.45;;
49592;SDS011;35499;51.482;4.264;2023-02-24T05:43:49;2.40;;;0.50;;
49592;SDS011;35499;51.482;4.264;2023-02-24T05:46:22;2.92;;;0.90;;
49592;SDS011;35499;51.482;4.264;2023-02-24T05:48:52;5.45;;;1.08;;
49592;SDS011;35499;51.482;4.264;2023-02-24T05:51:21;3.35;;;0.68;;
49592;SDS011;35499;51.482;4.264;2023-02-24T05:54:00;6.10;;;0.68;;
49592;SDS011;35499;51.482;4.264;2023-02-24T05:56:29;2.78;;;0.57;;
49592;SDS011;35499;51.482;4.264;2023-02-24T05:58:57;8.50;;;1.02;;
49592;SDS011;35499;51.482;4.264;2023-02-24T06:01:32;1.90;;;0.63;;
49592;SDS011;35499;51.482;4.264;2023-02-24T06:04:00;2.58;;;0.70;;
49592;SDS011;35499;51.482;4.264;2023-02-24T06:06:33;2.22;;;0.85;;
49592;SDS011;35499;51.482;4.264;2023-02-24T06:09:06;9.23;;;1.05;;
49592;SDS011;35499;51.482;4.264;2023-02-24T06:11:40;4.18;;;0.65;;
49592;SDS011;35499;51.482;4.264;2023-02-24T06:14:07;4.75;;;0.80;;
49592;SDS011;35499;51.482;4.264;2023-02-24T06:16:34;2.33;;;0.70;;
49592;SDS011;35499;51.482;4.264;2023-02-24T06:19:01;4.20;;;1.05;;
49592;SDS011;35499;51.482;4.264;2023-02-24T06:21:28;7.50;;;1.13;;
49592;SDS011;35499;51.482;4.264;2023-02-24T06:23:54;4.53;;;0.85;;
49592;SDS011;35499;51.482;4.264;2023-02-24T06:26:21;6.40;;;1.10;;
49592;SDS011;35499;51.482;4.264;2023-02-24T06:28:47;2.63;;;0.65;;
49592;SDS011;35499;51.482;4.264;2023-02-24T06:31:13;7.55;;;0.85;;
49592;SDS011;35499;51.482;4.264;2023-02-24T06:33:40;6.90;;;1.27;;
49592;SDS011;35499;51.482;4.264;2023-02-24T06:36:06;1.70;;;0.50;;
49592;SDS011;35499;51.482;4.264;2023-02-24T06:38:33;13.50;;;1.13;;
49592;SDS011;35499;51.482;4.264;2023-02-24T06:41:00;2.17;;;0.75;;
49592;SDS011;35499;51.482;4.264;2023-02-24T06:43:35;4.88;;;1.25;;
49592;SDS011;35499;51.482;4.264;2023-02-24T06:46:04;7.25;;;1.35;;
49592;SDS011;35499;51.482;4.264;2023-02-24T06:48:33;3.10;;;0.90;;
49592;SDS011;35499;51.482;4.264;2023-02-24T06:51:02;4.93;;;0.95;;
49592;SDS011;35499;51.482;4.264;2023-02-24T06:53:29;7.43;;;1.15;;
49592;SDS011;35499;51.482;4.264;2023-02-24T06:55:58;3.20;;;0.75;;
49592;SDS011;35499;51.482;4.264;2023-02-24T06:58:27;7.70;;;0.85;;
49592;SDS011;35499;51.482;4.264;2023-02-24T07:00:53;7.17;;;1.40;;
49592;SDS011;35499;51.482;4.264;2023-02-24T07:03:22;3.67;;;0.73;;
49592;SDS011;35499;51.482;4.264;2023-02-24T07:05:50;4.18;;;1.13;;
49592;SDS011;35499;51.482;4.264;2023-02-24T07:08:35;6.43;;;2.00;;
49592;SDS011;35499;51.482;4.264;2023-02-24T07:11:01;3.00;;;0.82;;
49592;SDS011;35499;51.482;4.264;2023-02-24T07:13:30;1.52;;;0.47;;
49592;SDS011;35499;51.482;4.264;2023-02-24T07:15:57;5.97;;;1.05;;
49592;SDS011;35499;51.482;4.264;2023-02-24T07:18:24;7.85;;;1.08;;
49592;SDS011;35499;51.482;4.264;2023-02-24T07:20:50;4.10;;;1.17;;
49592;SDS011;35499;51.482;4.264;2023-02-24T07:23:16;4.97;;;0.73;;
49592;SDS011;35499;51.482;4.264;2023-02-24T07:25:42;6.18;;;0.95;;
49592;SDS011;35499;51.482;4.264;2023-02-24T07:28:10;7.72;;;1.60;;
49592;SDS011;35499;51.482;4.264;2023-02-24T07:30:37;10.70;;;0.93;;
49592;SDS011;35499;51.482;4.264;2023-02-24T07:33:04;6.20;;;0.82;;
49592;SDS011;35499;51.482;4.264;2023-02-24T07:35:31;6.78;;;1.40;;
49592;SDS011;35499;51.482;4.264;2023-02-24T07:37:57;6.10;;;1.15;;
49592;SDS011;35499;51.482;4.264;2023-02-24T07:40:29;4.82;;;1.00;;
49592;SDS011;35499;51.482;4.264;2023-02-24T07:42:58;4.25;;;0.63;;
49592;SDS011;35499;51.482;4.264;2023-02-24T07:45:24;5.50;;;1.50;;
49592;SDS011;35499;51.482;4.264;2023-02-24T07:47:50;3.80;;;1.23;;
49592;SDS011;35499;51.482;4.264;2023-02-24T07:50:15;5.60;;;1.03;;
49592;SDS011;35499;51.482;4.264;2023-02-24T07:55:12;4.38;;;1.42;;
49592;SDS011;35499;51.482;4.264;2023-02-24T07:57:39;8.13;;;1.05;;
49592;SDS011;35499;51.482;4.264;2023-02-24T08:00:10;3.92;;;0.98;;
49592;SDS011;35499;51.482;4.264;2023-02-24T08:02:43;4.40;;;0.77;;
49592;SDS011;35499;51.482;4.264;2023-02-24T08:05:09;9.63;;;1.40;;
49592;SDS011;35499;51.482;4.264;2023-02-24T08:07:34;7.23;;;1.07;;
49592;SDS011;35499;51.482;4.264;2023-02-24T08:10:00;7.57;;;1.00;;
49592;SDS011;35499;51.482;4.264;2023-02-24T08:12:38;5.63;;;0.80;;
49592;SDS011;35499;51.482;4.264;2023-02-24T08:15:06;8.50;;;0.93;;
49592;SDS011;35499;51.482;4.264;2023-02-24T08:17:33;4.95;;;0.93;;
49592;SDS011;35499;51.482;4.264;2023-02-24T08:19:59;5.35;;;0.90;;
49592;SDS011;35499;51.482;4.264;2023-02-24T08:22:37;5.05;;;1.50;;
49592;SDS011;35499;51.482;4.264;2023-02-24T08:25:03;9.05;;;1.75;;
49592;SDS011;35499;51.482;4.264;2023-02-24T08:27:33;4.68;;;1.48;;
49592;SDS011;35499;51.482;4.264;2023-02-24T08:30:06;6.53;;;1.73;;
49592;SDS011;35499;51.482;4.264;2023-02-24T08:35:11;8.32;;;1.27;;
49592;SDS011;35499;51.482;4.264;2023-02-24T08:37:39;7.50;;;1.08;;
49592;SDS011;35499;51.482;4.264;2023-02-24T08:45:40;7.05;;;1.27;;
49592;SDS011;35499;51.482;4.264;2023-02-24T08:48:08;3.28;;;0.90;;
49592;SDS011;35499;51.482;4.264;2023-02-24T08:50:42;5.47;;;0.82;;
49592;SDS011;35499;51.482;4.264;2023-02-24T08:53:11;7.95;;;1.77;;
49592;SDS011;35499;51.482;4.264;2023-02-24T08:55:43;6.20;;;1.20;;
49592;SDS011;35499;51.482;4.264;2023-02-24T08:58:09;9.45;;;1.48;;
49592;SDS011;35499;51.482;4.264;2023-02-24T09:00:42;5.82;;;1.75;;
49592;SDS011;35499;51.482;4.264;2023-02-24T09:03:17;6.88;;;1.15;;
49592;SDS011;35499;51.482;4.264;2023-02-24T09:05:58;7.25;;;1.27;;
49592;SDS011;35499;51.482;4.264;2023-02-24T09:08:28;9.05;;;1.60;;
49592;SDS011;35499;51.482;4.264;2023-02-24T09:10:59;8.27;;;1.48;;
49592;SDS011;35499;51.482;4.264;2023-02-24T09:13:32;7.22;;;1.33;;
49592;SDS011;35499;51.482;4.264;2023-02-24T09:15:59;7.35;;;1.67;;
49592;SDS011;35499;51.482;4.264;2023-02-24T09:18:26;7.05;;;1.33;;
49592;SDS011;35499;51.482;4.264;2023-02-24T09:21:06;3.67;;;1.02;;
49592;SDS011;35499;51.482;4.264;2023-02-24T09:23:50;9.13;;;2.65;;
49592;SDS011;35499;51.482;4.264;2023-02-24T09:26:16;3.42;;;1.23;;
49592;SDS011;35499;51.482;4.264;2023-02-24T09:28:41;7.77;;;2.23;;
49592;SDS011;35499;51.482;4.264;2023-02-24T09:31:13;9.88;;;2.10;;
49592;SDS011;35499;51.482;4.264;2023-02-24T09:33:42;10.35;;;2.30;;
49592;SDS011;35499;51.482;4.264;2023-02-24T09:36:16;6.07;;;1.38;;
49592;SDS011;35499;51.482;4.264;2023-02-24T09:38:52;6.32;;;2.03;;
49592;SDS011;35499;51.482;4.264;2023-02-24T09:44:03;11.30;;;1.92;;
49592;SDS011;35499;51.482;4.264;2023-02-24T09:46:42;10.15;;;2.92;;
49592;SDS011;35499;51.482;4.264;2023-02-24T09:49:17;5.78;;;2.08;;
49592;SDS011;35499;51.482;4.264;2023-02-24T09:51:47;7.63;;;1.70;;
49592;SDS011;35499;51.482;4.264;2023-02-24T09:54:24;8.80;;;2.10;;
49592;SDS011;35499;51.482;4.264;2023-02-24T09:57:02;12.02;;;2.08;;
49592;SDS011;35499;51.482;4.264;2023-02-24T10:07:28;9.85;;;2.10;;
49592;SDS011;35499;51.482;4.264;2023-02-24T10:10:04;9.70;;;2.78;;
49592;SDS011;35499;51.482;4.264;2023-02-24T10:15:25;7.10;;;1.77;;
49592;SDS011;35499;51.482;4.264;2023-02-24T10:18:25;6.13;;;1.67;;
49592;SDS011;35499;51.482;4.264;2023-02-24T10:20:58;8.57;;;1.70;;
49592;SDS011;35499;51.482;4.264;2023-02-24T10:26:29;6.63;;;2.00;;
49592;SDS011;35499;51.482;4.264;2023-02-24T10:29:16;6.60;;;2.28;;
49592;SDS011;35499;51.482;4.264;2023-02-24T10:34:42;9.90;;;2.10;;
49592;SDS011;35499;51.482;4.264;2023-02-24T10:39:43;6.75;;;2.00;;
49592;SDS011;35499;51.482;4.264;2023-02-24T10:42:20;13.82;;;2.63;;
49592;SDS011;35499;51.482;4.264;2023-02-24T10:44:48;7.15;;;2.38;;
49592;SDS011;35499;51.482;4.264;2023-02-24T10:47:19;11.77;;;2.42;;
49592;SDS011;35499;51.482;4.264;2023-02-24T10:49:55;7.93;;;1.75;;
49592;SDS011;35499;51.482;4.264;2023-02-24T10:52:32;8.07;;;2.53;;
49592;SDS011;35499;51.482;4.264;2023-02-24T10:55:05;7.45;;;2.17;;
49592;SDS011;35499;51.482;4.264;2023-02-24T10:57:52;11.95;;;2.88;;
49592;SDS011;35499;51.482;4.264;2023-02-24T11:00:35;7.53;;;1.52;;
49592;SDS011;35499;51.482;4.264;2023-02-24T11:03:21;13.00;;;1.83;;
49592;SDS011;35499;51.482;4.264;2023-02-24T11:06:00;8.98;;;2.13;;
49592;SDS011;35499;51.482;4.264;2023-02-24T11:08:28;6.75;;;1.83;;
49592;SDS011;35499;51.482;4.264;2023-02-24T11:11:18;7.70;;;2.30;;
49592;SDS011;35499;51.482;4.264;2023-02-24T11:14:00;10.27;;;1.77;;
49592;SDS011;35499;51.482;4.264;2023-02-24T11:16:49;10.18;;;1.95;;
49592;SDS011;35499;51.482;4.264;2023-02-24T11:19:42;6.30;;;3.60;;
49592;SDS011;35499;51.482;4.264;2023-02-24T11:22:15;8.98;;;2.40;;
49592;SDS011;35499;51.482;4.264;2023-02-24T11:24:45;9.15;;;2.53;;
49592;SDS011;35499;51.482;4.264;2023-02-24T11:27:14;5.72;;;1.52;;
49592;SDS011;35499;51.482;4.264;2023-02-24T11:35:11;7.82;;;1.90;;
49592;SDS011;35499;51.482;4.264;2023-02-24T11:40:26;11.25;;;2.90;;
49592;SDS011;35499;51.482;4.264;2023-02-24T11:45:32;11.98;;;2.67;;
49592;SDS011;35499;51.482;4.264;2023-02-24T11:50:47;9.50;;;2.13;;
49592;SDS011;35499;51.482;4.264;2023-02-24T11:53:37;7.32;;;2.13;;
49592;SDS011;35499;51.482;4.264;2023-02-24T11:56:13;8.88;;;2.97;;
49592;SDS011;35499;51.482;4.264;2023-02-24T12:07:17;8.95;;;2.47;;
49592;SDS011;35499;51.482;4.264;2023-02-24T12:12:41;7.63;;;3.50;;
49592;SDS011;35499;51.482;4.264;2023-02-24T12:15:14;5.20;;;2.28;;
49592;SDS011;35499;51.482;4.264;2023-02-24T12:17:59;9.07;;;2.72;;
49592;SDS011;35499;51.482;4.264;2023-02-24T12:20:35;11.00;;;2.58;;
49592;SDS011;35499;51.482;4.264;2023-02-24T12:23:15;7.18;;;3.10;;
49592;SDS011;35499;51.482;4.264;2023-02-24T12:31:00;7.88;;;2.92;;
49592;SDS011;35499;51.482;4.264;2023-02-24T12:33:46;9.40;;;3.15;;
49592;SDS011;35499;51.482;4.264;2023-02-24T12:42:39;7.40;;;3.92;;
49592;SDS011;35499;51.482;4.264;2023-02-24T12:45:15;8.27;;;3.40;;
49592;SDS011;35499;51.482;4.264;2023-02-24T12:58:46;6.85;;;3.67;;
49592;SDS011;35499;51.482;4.264;2023-02-24T13:07:06;10.48;;;4.70;;
49592;SDS011;35499;51.482;4.264;2023-02-24T13:09:37;11.85;;;4.60;;
49592;SDS011;35499;51.482;4.264;2023-02-24T13:12:14;9.15;;;5.03;;
49592;SDS011;35499;51.482;4.264;2023-02-24T13:14:45;9.23;;;4.82;;
49592;SDS011;35499;51.482;4.264;2023-02-24T13:19:40;6.90;;;3.40;;
49592;SDS011;35499;51.482;4.264;2023-02-24T13:24:35;9.75;;;5.50;;
49592;SDS011;35499;51.482;4.264;2023-02-24T13:27:04;9.02;;;5.05;;
49592;SDS011;35499;51.482;4.264;2023-02-24T13:29:30;10.50;;;4.88;;
49592;SDS011;35499;51.482;4.264;2023-02-24T13:32:19;13.80;;;6.07;;
49592;SDS011;35499;51.482;4.264;2023-02-24T13:34:56;10.50;;;4.85;;
49592;SDS011;35499;51.482;4.264;2023-02-24T13:37:46;10.35;;;5.50;;
49592;SDS011;35499;51.482;4.264;2023-02-24T13:42:54;11.93;;;5.10;;
49592;SDS011;35499;51.482;4.264;2023-02-24T13:45:29;16.23;;;5.85;;
49592;SDS011;35499;51.482;4.264;2023-02-24T14:02:20;10.43;;;4.47;;
49592;SDS011;35499;51.482;4.264;2023-02-24T14:04:50;11.82;;;5.68;;
49592;SDS011;35499;51.482;4.264;2023-02-24T14:07:21;12.93;;;4.78;;
49592;SDS011;35499;51.482;4.264;2023-02-24T14:09:56;12.77;;;5.40;;
49592;SDS011;35499;51.482;4.264;2023-02-24T14:12:28;12.18;;;4.45;;
49592;SDS011;35499;51.482;4.264;2023-02-24T14:14:56;12.68;;;5.25;;
49592;SDS011;35499;51.482;4.264;2023-02-24T14:17:23;14.80;;;4.85;;
49592;SDS011;35499;51.482;4.264;2023-02-24T14:22:33;12.27;;;4.05;;
49592;SDS011;35499;51.482;4.264;2023-02-24T14:25:03;14.52;;;3.38;;
49592;SDS011;35499;51.482;4.264;2023-02-24T14:27:29;15.75;;;3.60;;
49592;SDS011;35499;51.482;4.264;2023-02-24T14:29:55;13.15;;;2.95;;
49592;SDS011;35499;51.482;4.264;2023-02-24T14:32:22;23.45;;;2.45;;
49592;SDS011;35499;51.482;4.264;2023-02-24T14:34:49;17.10;;;2.65;;
49592;SDS011;35499;51.482;4.264;2023-02-24T14:37:16;13.77;;;2.05;;
49592;SDS011;35499;51.482;4.264;2023-02-24T14:39:51;11.52;;;1.95;;
49592;SDS011;35499;51.482;4.264;2023-02-24T14:42:19;11.60;;;1.75;;
49592;SDS011;35499;51.482;4.264;2023-02-24T14:44:49;11.38;;;1.58;;
49592;SDS011;35499;51.482;4.264;2023-02-24T14:47:20;13.68;;;2.42;;
49592;SDS011;35499;51.482;4.264;2023-02-24T14:49:55;11.27;;;2.45;;
49592;SDS011;35499;51.482;4.264;2023-02-24T14:55:02;12.27;;;2.33;;
49592;SDS011;35499;51.482;4.264;2023-02-24T14:57:35;11.90;;;1.65;;
49592;SDS011;35499;51.482;4.264;2023-02-24T15:00:05;16.25;;;2.50;;
49592;SDS011;35499;51.482;4.264;2023-02-24T15:02:37;9.45;;;1.95;;
49592;SDS011;35499;51.482;4.264;2023-02-24T15:05:07;18.05;;;2.15;;
49592;SDS011;35499;51.482;4.264;2023-02-24T15:09:59;14.73;;;1.80;;
49592;SDS011;35499;51.482;4.264;2023-02-24T15:12:28;18.38;;;2.40;;
49592;SDS011;35499;51.482;4.264;2023-02-24T15:15:06;12.73;;;2.25;;
49592;SDS011;35499;51.482;4.264;2023-02-24T15:20:30;15.75;;;2.38;;
49592;SDS011;35499;51.482;4.264;2023-02-24T15:23:00;12.25;;;2.30;;
49592;SDS011;35499;51.482;4.264;2023-02-24T15:25:42;16.88;;;1.95;;
49592;SDS011;35499;51.482;4.264;2023-02-24T15:35:51;7.43;;;1.67;;
49592;SDS011;35499;51.482;4.264;2023-02-24T15:38:23;5.65;;;1.20;;
49592;SDS011;35499;51.482;4.264;2023-02-24T15:40:58;6.85;;;1.45;;
49592;SDS011;35499;51.482;4.264;2023-02-24T15:43:35;6.90;;;1.17;;
49592;SDS011;35499;51.482;4.264;2023-02-24T15:46:13;5.97;;;1.50;;
49592;SDS011;35499;51.482;4.264;2023-02-24T15:48:44;6.10;;;0.95;;
49592;SDS011;35499;51.482;4.264;2023-02-24T15:51:19;12.38;;;1.42;;
49592;SDS011;35499;51.482;4.264;2023-02-24T15:53:47;12.93;;;2.13;;
49592;SDS011;35499;51.482;4.264;2023-02-24T15:56:13;5.00;;;1.10;;
49592;SDS011;35499;51.482;4.264;2023-02-24T15:58:41;9.23;;;1.35;;
49592;SDS011;35499;51.482;4.264;2023-02-24T16:01:07;13.10;;;2.15;;
49592;SDS011;35499;51.482;4.264;2023-02-24T16:03:34;7.35;;;1.08;;
49592;SDS011;35499;51.482;4.264;2023-02-24T16:05:59;7.33;;;1.07;;
49592;SDS011;35499;51.482;4.264;2023-02-24T16:08:25;9.20;;;1.10;;
49592;SDS011;35499;51.482;4.264;2023-02-24T16:10:50;9.32;;;1.20;;
49592;SDS011;35499;51.482;4.264;2023-02-24T16:13:18;8.80;;;1.02;;
49592;SDS011;35499;51.482;4.264;2023-02-24T16:15:46;5.65;;;0.90;;
49592;SDS011;35499;51.482;4.264;2023-02-24T16:18:16;2.40;;;0.70;;
49592;SDS011;35499;51.482;4.264;2023-02-24T16:20:44;4.53;;;0.75;;
49592;SDS011;35499;51.482;4.264;2023-02-24T16:23:18;8.57;;;1.60;;
49592;SDS011;35499;51.482;4.264;2023-02-24T16:25:43;5.38;;;0.95;;
49592;SDS011;35499;51.482;4.264;2023-02-24T16:28:13;6.50;;;1.40;;
49592;SDS011;35499;51.482;4.264;2023-02-24T16:30:40;6.72;;;1.15;;
49592;SDS011;35499;51.482;4.264;2023-02-24T16:33:09;6.38;;;0.80;;
49592;SDS011;35499;51.482;4.264;2023-02-24T16:35:36;5.57;;;0.90;;
49592;SDS011;35499;51.482;4.264;2023-02-24T16:38:03;5.93;;;0.93;;
49592;SDS011;35499;51.482;4.264;2023-02-24T16:40:30;5.03;;;0.80;;
49592;SDS011;35499;51.482;4.264;2023-02-24T16:43:01;7.20;;;1.42;;
49592;SDS011;35499;51.482;4.264;2023-02-24T16:45:28;4.22;;;0.50;;
49592;SDS011;35499;51.482;4.264;2023-02-24T16:47:55;5.80;;;0.68;;
49592;SDS011;35499;51.482;4.264;2023-02-24T16:50:26;6.43;;;1.02;;
49592;SDS011;35499;51.482;4.264;2023-02-24T16:52:54;9.35;;;1.58;;
49592;SDS011;35499;51.482;4.264;2023-02-24T16:55:20;10.70;;;1.03;;
49592;SDS011;35499;51.482;4.264;2023-02-24T16:57:46;8.20;;;1.13;;
49592;SDS011;35499;51.482;4.264;2023-02-24T17:00:12;7.83;;;0.90;;
49592;SDS011;35499;51.482;4.264;2023-02-24T17:02:39;5.75;;;0.73;;
49592;SDS011;35499;51.482;4.264;2023-02-24T17:05:09;5.97;;;1.05;;
49592;SDS011;35499;51.482;4.264;2023-02-24T17:07:40;9.43;;;1.15;;
49592;SDS011;35499;51.482;4.264;2023-02-24T17:10:05;4.43;;;0.87;;
49592;SDS011;35499;51.482;4.264;2023-02-24T17:12:31;4.70;;;0.85;;
49592;SDS011;35499;51.482;4.264;2023-02-24T17:14:56;5.87;;;0.50;;
49592;SDS011;35499;51.482;4.264;2023-02-24T17:17:23;4.35;;;0.57;;
49592;SDS011;35499;51.482;4.264;2023-02-24T17:19:48;8.88;;;1.13;;
49592;SDS011;35499;51.482;4.264;2023-02-24T17:22:14;7.40;;;0.60;;
49592;SDS011;35499;51.482;4.264;2023-02-24T17:24:39;8.60;;;1.47;;
49592;SDS011;35499;51.482;4.264;2023-02-24T17:27:04;4.43;;;0.60;;
49592;SDS011;35499;51.482;4.264;2023-02-24T17:29:31;4.18;;;0.55;;
49592;SDS011;35499;51.482;4.264;2023-02-24T17:31:57;7.18;;;1.10;;
49592;SDS011;35499;51.482;4.264;2023-02-24T17:34:22;5.23;;;0.80;;
49592;SDS011;35499;51.482;4.264;2023-02-24T17:36:48;3.80;;;0.80;;
49592;SDS011;35499;51.482;4.264;2023-02-24T17:39:13;7.97;;;1.92;;
49592;SDS011;35499;51.482;4.264;2023-02-24T17:41:39;6.40;;;0.93;;
49592;SDS011;35499;51.482;4.264;2023-02-24T17:44:04;7.20;;;0.80;;
49592;SDS011;35499;51.482;4.264;2023-02-24T17:46:29;6.87;;;1.00;;
49592;SDS011;35499;51.482;4.264;2023-02-24T17:48:54;8.70;;;0.90;;
49592;SDS011;35499;51.482;4.264;2023-02-24T17:51:20;6.77;;;0.90;;
49592;SDS011;35499;51.482;4.264;2023-02-24T17:53:46;4.03;;;0.63;;
49592;SDS011;35499;51.482;4.264;2023-02-24T17:56:12;6.80;;;0.63;;
49592;SDS011;35499;51.482;4.264;2023-02-24T17:58:37;3.90;;;0.73;;
49592;SDS011;35499;51.482;4.264;2023-02-24T18:01:03;3.28;;;0.73;;
49592;SDS011;35499;51.482;4.264;2023-02-24T18:03:30;6.70;;;1.23;;